Pike Station, Illinois
Current Conditions -  °F | °C
As of 11:55 PM on Friday 19 Dec 2014 (Local Time) from KPPQ Reporting Station
Overcast Overcast  
Wind Chill:   Ceiling: 5000
Heat Index:   Visibility: 10mi
Dew Point: -2°   Wind: 3mph
Humidity: 85%   Direction: 150°SSE
Pressure: 30.28"   Gusts: NA
Location:  39.5365°N, 91.0118°W
Report Text: KPPQ 200555Z AUTO 15003KT 10SM OVC050 00/M02 A3028 RMK AO2 T00021020 10007 20002
Loading
Personal Weather Stations






























Interactive Weather Map New forecast layout! Learn more

10-Day Weather Forecast

Advertisements
Track Severe Weather on mobile